Time;durP1;ratioP1;P1;durP2;ratioP2;P2;SDS_P1;SDS_P2;PMS_P1;PMS_P2;Temp;Humidity;BMP_temperature;BMP_pressure;BME280_temperature;BME280_humidity;BME280_pressure;Samples;Min_cycle;Max_cycle;Signal;HPM_P1;HPM_P2
2023/03/24 00:00:25;;;;;;;;;;;;;;;14.64;44.89;95196.03;5088695;28;19974;-60
2023/03/24 00:05:57;;;;;;;;;;;;;;;14.62;44.82;95190.25;5087561;28;20618;-62
2023/03/24 00:08:29;;;;;;;;;;;;;;;14.71;44.42;95188.59;5092229;28;19924;-61
2023/03/24 00:10:59;;;;;;;;;;;;;;;14.65;44.95;95192.31;5091676;28;20413;-61
2023/03/24 00:13:27;;;;;;;;;;;;;;;14.66;44.46;95182.56;5092343;28;19986;-61
2023/03/24 00:15:54;;;;;;;;;;;;;;;14.47;45.43;95185.06;5091679;28;19962;-62
2023/03/24 00:18:26;;;;;;;;;;;;;;;14.43;44.62;95184.03;5092182;28;19923;-61
2023/03/24 00:21:25;;;;;;;;;;;;;;;14.52;45.13;95187.69;5089539;28;20053;-61
2023/03/24 00:24:00;;;;;;;;;;;;;;;14.50;45.09;95189.81;5089900;28;19955;-61
2023/03/24 00:26:28;;;;;;;;;;;;;;;14.39;44.80;95200.66;5091117;28;19963;-62
2023/03/24 00:28:56;;;;;;;;;;;;;;;14.28;44.97;95197.28;5091902;28;19924;-61
2023/03/24 00:31:24;;;;;;;;;;;;;;;14.02;45.35;95206.31;5091240;28;19924;-61
2023/03/24 00:33:52;;;;;;;;;;;;;;;13.08;48.25;95199.06;5090345;28;20398;-59
2023/03/24 00:36:20;;;;;;;;;;;;;;;13.57;46.94;95190.63;5090884;28;20297;-61
2023/03/24 00:38:48;;;;;;;;;;;;;;;13.65;46.25;95198.75;5090541;28;19924;-62
2023/03/24 00:41:18;;;;;;;;;;;;;;;13.52;45.79;95177.47;5092486;28;19960;-60
2023/03/24 00:43:47;;;;;;;;;;;;;;;13.58;45.41;95192.19;5092116;28;19928;-62
2023/03/24 00:46:27;;;;;;;;;;;;;;;13.06;45.88;95190.66;5091050;28;19951;-61
2023/03/24 00:49:04;;;;;;;;;;;;;;;12.96;46.41;95195.91;5091455;28;19920;-61
2023/03/24 00:51:33;;;;;;;;;;;;;;;12.65;46.59;95189.03;5091686;28;20014;-60
2023/03/24 00:54:00;;;;;;;;;;;;;;;12.61;46.90;95195.84;5091382;28;19928;-59
2023/03/24 00:56:30;;;;;;;;;;;;;;;12.37;47.49;95192.09;5090592;28;19926;-61
2023/03/24 00:58:57;;;;;;;;;;;;;;;12.49;47.00;95190.06;5091091;28;19931;-60
2023/03/24 01:01:26;;;;;;;;;;;;;;;12.27;46.95;95192.09;5090895;28;20094;-62
2023/03/24 01:03:52;;;;;;;;;;;;;;;12.49;46.38;95192.69;5091241;28;19923;-60
2023/03/24 01:06:21;;;;;;;;;;;;;;;12.63;46.19;95196.38;5090572;28;19924;-63
2023/03/24 01:08:52;;;;;;;;;;;;;;;12.69;45.98;95191.91;5089726;28;19924;-61
2023/03/24 01:11:24;;;;;;;;;;;;;;;12.87;45.64;95188.78;5090190;28;19919;-61
2023/03/24 01:13:52;;;;;;;;;;;;;;;12.75;45.43;95183.78;5091071;28;19924;-60
2023/03/24 01:16:19;;;;;;;;;;;;;;;12.97;45.12;95181.69;5090448;28;19928;-61
2023/03/24 01:18:46;;;;;;;;;;;;;;;12.49;45.59;95184.78;5089776;28;19978;-61
2023/03/24 01:21:13;;;;;;;;;;;;;;;12.61;45.94;95187.19;5089061;28;20613;-62
2023/03/24 01:23:40;;;;;;;;;;;;;;;12.74;45.69;95176.16;5090167;28;20367;-62
2023/03/24 01:26:09;;;;;;;;;;;;;;;12.84;45.39;95182.22;5090301;28;19931;-62
2023/03/24 01:28:47;;;;;;;;;;;;;;;12.84;45.33;95174.34;5090539;28;20360;-62
2023/03/24 01:31:19;;;;;;;;;;;;;;;13.01;45.28;95179.34;5090161;28;19981;-61
2023/03/24 01:33:51;;;;;;;;;;;;;;;13.12;44.92;95173.81;5092676;28;19932;-61
2023/03/24 01:36:17;;;;;;;;;;;;;;;13.02;44.97;95176.47;5089902;28;19931;-62
2023/03/24 01:38:47;;;;;;;;;;;;;;;13.14;44.52;95174.34;5085808;28;19920;-62
2023/03/24 01:41:14;;;;;;;;;;;;;;;13.04;44.73;95177.00;5088806;28;19924;-62
2023/03/24 01:43:44;;;;;;;;;;;;;;;13.03;44.67;95174.63;5090211;28;19970;-61
2023/03/24 01:46:21;;;;;;;;;;;;;;;13.08;44.50;95178.03;5090267;28;19923;-60
2023/03/24 01:48:49;;;;;;;;;;;;;;;12.78;45.05;95179.84;5089532;28;19931;-61
2023/03/24 01:51:26;;;;;;;;;;;;;;;12.76;45.26;95176.69;5089910;28;19927;-61
2023/03/24 01:54:01;;;;;;;;;;;;;;;12.84;45.39;95181.44;5089128;28;20353;-62
2023/03/24 01:56:30;;;;;;;;;;;;;;;13.04;44.56;95176.22;5089402;28;19924;-62
2023/03/24 01:58:58;;;;;;;;;;;;;;;12.79;45.99;95176.94;5088394;28;19924;-59
2023/03/24 02:01:38;;;;;;;;;;;;;;;12.89;45.82;95178.78;5088211;28;19931;-61
2023/03/24 02:04:24;;;;;;;;;;;;;;;12.85;45.80;95183.00;5089712;28;19927;-60
2023/03/24 02:06:58;;;;;;;;;;;;;;;12.78;45.83;95193.78;5088008;28;19920;-61
2023/03/24 02:09:25;;;;;;;;;;;;;;;12.69;45.94;95184.03;5088601;28;19953;-62
2023/03/24 02:11:52;;;;;;;;;;;;;;;12.73;45.83;95183.25;5089713;28;20462;-61
2023/03/24 02:14:20;;;;;;;;;;;;;;;12.89;45.24;95195.38;5106103;28;20307;-61
2023/03/24 02:16:47;;;;;;;;;;;;;;;12.62;45.88;95189.56;5087938;28;20022;-63
2023/03/24 02:19:37;;;;;;;;;;;;;;;12.52;46.07;95194.00;5088413;28;19924;-62
2023/03/24 02:22:25;;;;;;;;;;;;;;;12.46;45.94;95201.09;5104667;28;19923;-61
2023/03/24 02:24:55;;;;;;;;;;;;;;;11.90;47.00;95207.16;5088201;28;19943;-61
2023/03/24 02:27:46;;;;;;;;;;;;;;;11.49;48.11;95195.63;5088673;28;20383;-60
2023/03/24 02:30:12;;;;;;;;;;;;;;;11.52;48.37;95194.31;5084220;28;20011;-60
2023/03/24 02:33:05;;;;;;;;;;;;;;;11.73;47.61;95202.09;5088711;28;20004;-61
2023/03/24 02:36:14;;;;;;;;;;;;;;;12.15;46.64;95196.78;5088557;28;19931;-62
2023/03/24 02:38:44;;;;;;;;;;;;;;;12.36;46.06;95195.78;5076194;28;20405;-61
2023/03/24 02:41:19;;;;;;;;;;;;;;;11.62;47.47;95189.16;5084418;28;19924;-61
2023/03/24 02:44:03;;;;;;;;;;;;;;;11.48;48.23;95185.41;5088143;28;19923;-62
2023/03/24 02:46:41;;;;;;;;;;;;;;;11.61;47.50;95190.97;5092257;28;20070;-62
2023/03/24 02:49:19;;;;;;;;;;;;;;;10.80;49.59;95176.50;5104014;28;19930;-61
2023/03/24 02:51:59;;;;;;;;;;;;;;;10.92;49.73;95169.25;5089627;28;20080;-61
2023/03/24 02:54:34;;;;;;;;;;;;;;;11.32;48.81;95176.63;5094633;28;20314;-61
2023/03/24 03:00:58;;;;;;;;;;;;;;;11.48;47.82;95172.28;5081643;28;19927;-61
2023/03/24 03:03:54;;;;;;;;;;;;;;;11.62;47.53;95168.16;5064785;28;19924;-62
2023/03/24 03:06:28;;;;;;;;;;;;;;;11.63;47.40;95154.78;5087183;28;19924;-62
2023/03/24 03:09:04;;;;;;;;;;;;;;;11.77;47.21;95165.63;5087349;28;20550;-64
2023/03/24 03:11:31;;;;;;;;;;;;;;;11.83;46.96;95159.34;5087297;28;19923;-61
2023/03/24 03:14:06;;;;;;;;;;;;;;;12.14;45.97;95161.03;5087282;28;19927;-61
2023/03/24 03:16:39;;;;;;;;;;;;;;;12.19;46.16;95155.78;5088679;28;19924;-62
2023/03/24 03:19:26;;;;;;;;;;;;;;;12.28;45.95;95163.97;5087715;28;19928;-61
2023/03/24 03:21:53;;;;;;;;;;;;;;;12.24;45.61;95166.34;5086793;28;19923;-62
2023/03/24 03:24:25;;;;;;;;;;;;;;;12.16;45.84;95158.94;5087631;28;19920;-62
2023/03/24 03:26:56;;;;;;;;;;;;;;;12.29;46.11;95174.22;5088391;28;19923;-61
2023/03/24 03:29:27;;;;;;;;;;;;;;;12.23;46.72;95164.75;5087817;28;19926;-61
2023/03/24 03:32:07;;;;;;;;;;;;;;;12.34;47.97;95149.78;5088328;28;19924;-60
2023/03/24 03:34:44;;;;;;;;;;;;;;;12.42;47.24;95142.22;5088890;28;19934;-62
2023/03/24 03:37:17;;;;;;;;;;;;;;;12.05;48.64;95149.47;5079725;28;19951;-64
2023/03/24 03:39:48;;;;;;;;;;;;;;;12.28;47.37;95141.09;5088862;28;19931;-62
2023/03/24 03:42:14;;;;;;;;;;;;;;;12.46;46.39;95142.47;5088671;28;19977;-63
2023/03/24 03:44:42;;;;;;;;;;;;;;;12.28;46.60;95151.63;5092841;28;20006;-61
2023/03/24 03:47:11;;;;;;;;;;;;;;;12.14;47.12;95161.84;5091113;28;20540;-60
2023/03/24 03:49:44;;;;;;;;;;;;;;;11.96;47.32;95166.75;5091022;28;19955;-62
2023/03/24 03:52:14;;;;;;;;;;;;;;;11.75;47.90;95176.38;5090666;28;19930;-61
2023/03/24 03:54:45;;;;;;;;;;;;;;;11.77;47.87;95170.88;5091337;28;19927;-61
2023/03/24 03:57:12;;;;;;;;;;;;;;;11.96;46.95;95166.75;5107860;28;20375;-61
2023/03/24 04:00:18;;;;;;;;;;;;;;;12.06;46.87;95164.19;5039585;28;19946;-60
2023/03/24 04:03:18;;;;;;;;;;;;;;;11.83;47.58;95172.47;5048851;28;20031;-61
2023/03/24 04:09:04;;;;;;;;;;;;;;;11.82;47.29;95176.16;5052147;28;19921;-61
2023/03/24 04:11:35;;;;;;;;;;;;;;;11.88;46.82;95180.38;5054611;28;19921;-61
2023/03/24 04:14:08;;;;;;;;;;;;;;;11.70;47.04;95157.19;5051707;28;20019;-61
2023/03/24 04:17:03;;;;;;;;;;;;;;;11.91;46.70;95177.25;5020032;28;19925;-61
2023/03/24 04:19:45;;;;;;;;;;;;;;;11.92;47.08;95178.81;5043718;28;19925;-61
2023/03/24 04:22:37;;;;;;;;;;;;;;;11.96;46.67;95179.88;5048408;28;19935;-62
2023/03/24 04:25:33;;;;;;;;;;;;;;;11.85;46.91;95184.31;5042105;28;19994;-61
2023/03/24 04:28:26;;;;;;;;;;;;;;;11.90;46.89;95186.16;5047315;28;19924;-61
2023/03/24 04:31:13;;;;;;;;;;;;;;;11.78;47.14;95188.22;5061762;28;19924;-61
2023/03/24 04:34:11;;;;;;;;;;;;;;;11.78;46.50;95182.97;5052596;28;20019;-60
2023/03/24 04:36:45;;;;;;;;;;;;;;;11.91;46.52;95182.50;5044259;28;19925;-61
2023/03/24 04:39:37;;;;;;;;;;;;;;;11.56;47.08;95190.16;5046632;28;20047;-62
2023/03/24 04:42:21;;;;;;;;;;;;;;;11.65;46.83;95199.97;5050723;28;19927;-62
2023/03/24 04:44:56;;;;;;;;;;;;;;;11.63;47.02;95190.72;5050852;28;20027;-64
2023/03/24 04:47:46;;;;;;;;;;;;;;;11.63;47.01;95204.63;5051267;28;19931;-62
2023/03/24 04:50:37;;;;;;;;;;;;;;;11.58;47.36;95203.81;5030562;28;19921;-64
2023/03/24 04:53:09;;;;;;;;;;;;;;;11.58;46.89;95201.19;5061271;28;20078;-62
2023/03/24 04:55:56;;;;;;;;;;;;;;;11.74;46.88;95202.88;5067002;28;19925;-60
2023/03/24 04:58:46;;;;;;;;;;;;;;;11.50;47.26;95206.91;5061610;28;20318;-61
2023/03/24 05:01:39;;;;;;;;;;;;;;;11.47;46.99;95216.09;5089905;28;19927;-62
2023/03/24 05:04:26;;;;;;;;;;;;;;;11.68;46.88;95219.63;5085992;28;20367;-62
2023/03/24 05:07:20;;;;;;;;;;;;;;;11.74;46.72;95216.81;5091029;28;20124;-62
2023/03/24 05:13:13;;;;;;;;;;;;;;;11.77;47.29;95218.16;5090239;28;19923;-63
2023/03/24 05:15:45;;;;;;;;;;;;;;;11.59;46.99;95215.88;5076832;28;19942;-63
2023/03/24 05:18:37;;;;;;;;;;;;;;;11.83;46.69;95217.09;5088558;28;19920;-62
2023/03/24 05:21:07;;;;;;;;;;;;;;;11.73;46.63;95222.31;5085542;28;19935;-61
2023/03/24 05:23:41;;;;;;;;;;;;;;;11.83;46.85;95222.34;5087005;28;20268;-63
2023/03/24 05:26:14;;;;;;;;;;;;;;;12.00;46.51;95222.97;5084324;28;19924;-61
2023/03/24 05:29:04;;;;;;;;;;;;;;;12.15;46.38;95215.19;5088761;28;20397;-62
2023/03/24 05:31:32;;;;;;;;;;;;;;;12.16;45.66;95222.00;5084659;28;20363;-61
2023/03/24 05:34:12;;;;;;;;;;;;;;;11.52;47.06;95236.31;5088774;28;19923;-62
2023/03/24 05:37:01;;;;;;;;;;;;;;;11.27;47.71;95241.38;5079665;28;19982;-63
2023/03/24 05:39:32;;;;;;;;;;;;;;;11.05;48.16;95242.28;5084199;28;19927;-61
2023/03/24 05:42:06;;;;;;;;;;;;;;;10.47;49.62;95236.19;5072153;28;19977;-62
2023/03/24 05:44:37;;;;;;;;;;;;;;;10.82;49.59;95236.56;5089687;28;19924;-61
2023/03/24 05:47:14;;;;;;;;;;;;;;;11.65;47.19;95230.66;5087195;28;19924;-66
2023/03/24 05:50:10;;;;;;;;;;;;;;;12.24;46.88;95224.13;5086133;28;20378;-63
2023/03/24 05:52:46;;;;;;;;;;;;;;;12.15;46.72;95225.69;5089672;28;19931;-62
2023/03/24 05:55:36;;;;;;;;;;;;;;;12.39;45.95;95226.81;5079961;28;19927;-61
2023/03/24 05:58:16;;;;;;;;;;;;;;;12.73;46.80;95227.97;5105847;28;19973;-62
2023/03/24 06:00:48;;;;;;;;;;;;;;;12.75;46.79;95223.25;5090716;28;19926;-62
2023/03/24 06:03:32;;;;;;;;;;;;;;;13.03;45.99;95224.59;5077510;28;20024;-60
2023/03/24 06:06:13;;;;;;;;;;;;;;;13.00;46.29;95231.16;5087812;28;20260;-60
2023/03/24 06:08:43;;;;;;;;;;;;;;;13.08;45.74;95227.25;5090389;28;19928;-62
2023/03/24 06:11:13;;;;;;;;;;;;;;;13.29;46.19;95222.75;5088821;28;19930;-65
2023/03/24 06:13:59;;;;;;;;;;;;;;;13.36;46.17;95226.72;5089454;28;19924;-67
2023/03/24 06:16:43;;;;;;;;;;;;;;;13.41;46.14;95210.13;5088714;28;19928;-66
2023/03/24 06:19:15;;;;;;;;;;;;;;;13.70;46.39;95226.94;5107023;28;19920;-64
2023/03/24 06:22:10;;;;;;;;;;;;;;;13.62;46.34;95227.47;5088692;28;19926;-62
2023/03/24 06:24:41;;;;;;;;;;;;;;;14.02;45.36;95220.28;5092870;28;20316;-67
2023/03/24 06:27:10;;;;;;;;;;;;;;;14.27;44.67;95216.78;5089189;28;19927;-61
2023/03/24 06:29:48;;;;;;;;;;;;;;;14.05;44.44;95226.88;5089482;28;20506;-62
2023/03/24 06:35:16;;;;;;;;;;;;;;;14.35;43.57;95228.63;5093113;28;19993;-62
2023/03/24 06:37:52;;;;;;;;;;;;;;;14.43;43.84;95231.50;5084774;28;20014;-62
2023/03/24 06:40:24;;;;;;;;;;;;;;;14.42;43.83;95234.38;5103767;28;19924;-62
2023/03/24 06:42:56;;;;;;;;;;;;;;;14.60;43.61;95237.19;5091333;28;19920;-62
2023/03/24 06:45:30;;;;;;;;;;;;;;;14.63;43.33;95236.69;5104039;28;19981;-63
2023/03/24 06:48:04;;;;;;;;;;;;;;;14.44;43.62;95238.34;5086892;28;20030;-63
2023/03/24 06:50:34;;;;;;;;;;;;;;;14.60;42.45;95234.56;5087654;28;20278;-62
2023/03/24 06:53:11;;;;;;;;;;;;;;;14.74;43.17;95232.91;5087829;28;20379;-62
2023/03/24 06:55:43;;;;;;;;;;;;;;;14.79;42.59;95230.25;5089112;28;19927;-62
2023/03/24 06:58:13;;;;;;;;;;;;;;;14.73;43.27;95231.31;5087909;28;20019;-62
2023/03/24 07:01:00;;;;;;;;;;;;;;;14.73;43.22;95231.31;5088090;28;19967;-63
2023/03/24 07:03:48;;;;;;;;;;;;;;;15.00;43.77;95223.75;5089031;28;19927;-60
2023/03/24 07:06:37;;;;;;;;;;;;;;;14.83;43.05;95231.28;5089409;28;20311;-62
2023/03/24 07:09:24;;;;;;;;;;;;;;;14.90;42.03;95241.53;5105415;28;19920;-63
2023/03/24 07:12:01;;;;;;;;;;;;;;;14.82;43.58;95240.25;5088361;28;19920;-62
2023/03/24 07:14:29;;;;;;;;;;;;;;;15.18;42.47;95233.66;5089694;28;19920;-63
2023/03/24 07:17:08;;;;;;;;;;;;;;;14.98;43.74;95239.09;5093013;28;19920;-62
2023/03/24 07:19:56;;;;;;;;;;;;;;;15.11;42.75;95243.75;5088605;28;19932;-63
2023/03/24 07:38:21;;;;;;;;;;;;;;;15.68;42.78;95239.63;5171354;22;19924;-66
2023/03/24 07:40:52;;;;;;;;;;;;;;;15.90;42.74;95234.66;5039848;28;19924;-67
2023/03/24 07:43:19;;;;;;;;;;;;;;;16.05;42.26;95231.88;5064620;28;19925;-65
2023/03/24 07:46:00;;;;;;;;;;;;;;;15.56;42.00;95234.72;5048356;28;19943;-66
2023/03/24 07:48:27;;;;;;;;;;;;;;;15.56;41.95;95233.94;5030958;28;19921;-67
2023/03/24 07:50:54;;;;;;;;;;;;;;;15.75;41.27;95237.44;5047686;28;20411;-67
2023/03/24 07:53:47;;;;;;;;;;;;;;;16.03;41.18;95234.00;5043195;28;19925;-69
2023/03/24 07:56:23;;;;;;;;;;;;;;;16.00;40.74;95224.00;5030801;28;21945;-64
2023/03/24 07:58:54;;;;;;;;;;;;;;;16.25;40.72;95215.78;5031334;28;19928;-67
2023/03/24 08:01:27;;;;;;;;;;;;;;;16.44;40.28;95218.47;5030697;28;19930;-67
2023/03/24 08:03:58;;;;;;;;;;;;;;;16.68;39.63;95212.06;5038991;28;20393;-67
2023/03/24 08:06:52;;;;;;;;;;;;;;;16.53;39.51;95216.78;5036244;28;19925;-65
2023/03/24 08:09:19;;;;;;;;;;;;;;;16.45;40.03;95204.94;5048810;28;19920;-67
2023/03/24 08:11:45;;;;;;;;;;;;;;;16.32;40.96;95204.84;5048665;28;20422;-65
2023/03/24 08:14:12;;;;;;;;;;;;;;;16.02;41.17;95206.78;5049149;28;19955;-67
2023/03/24 08:16:39;;;;;;;;;;;;;;;16.81;40.79;95197.34;5048627;28;20009;-69
2023/03/24 08:19:05;;;;;;;;;;;;;;;17.19;40.14;95197.03;5048822;28;19925;-66
2023/03/24 08:21:32;;;;;;;;;;;;;;;17.40;39.61;95199.34;5048228;28;19964;-65
2023/03/24 08:23:59;;;;;;;;;;;;;;;17.48;39.33;95196.09;5048944;28;19931;-68
2023/03/24 08:26:26;;;;;;;;;;;;;;;17.67;39.18;95194.16;5047942;28;19935;-65
2023/03/24 08:28:52;;;;;;;;;;;;;;;18.04;38.64;95194.78;5050122;28;19924;-66
2023/03/24 08:31:19;;;;;;;;;;;;;;;17.85;37.61;95180.03;5051406;28;19925;-64
2023/03/24 08:33:46;;;;;;;;;;;;;;;17.84;37.47;95187.22;5051803;28;20426;-65
2023/03/24 08:36:13;;;;;;;;;;;;;;;18.33;38.13;95183.88;5051542;28;20437;-66
2023/03/24 08:38:40;;;;;;;;;;;;;;;18.45;38.18;95178.09;5051310;28;19925;-65
2023/03/24 08:41:07;;;;;;;;;;;;;;;18.59;38.83;95171.69;5051972;28;19925;-68
2023/03/24 08:43:35;;;;;;;;;;;;;;;18.89;38.14;95175.53;5052305;28;19990;-67
2023/03/24 08:46:02;;;;;;;;;;;;;;;18.87;38.30;95165.19;5051641;28;19931;-67
2023/03/24 08:48:29;;;;;;;;;;;;;;;19.02;37.46;95158.75;5052458;28;20020;-67
2023/03/24 08:50:56;;;;;;;;;;;;;;;19.16;36.96;95157.63;5051638;28;20383;-67
2023/03/24 08:53:23;;;;;;;;;;;;;;;19.26;36.89;95151.28;5051779;28;19928;-64
2023/03/24 08:55:50;;;;;;;;;;;;;;;19.50;36.94;95150.97;5042356;28;20411;-66
2023/03/24 08:58:20;;;;;;;;;;;;;;;19.53;36.28;95150.34;5051852;28;19929;-66
2023/03/24 09:00:47;;;;;;;;;;;;;;;19.80;36.31;95145.66;5051871;28;19975;-65
2023/03/24 09:03:20;;;;;;;;;;;;;;;19.82;35.99;95137.34;5051466;28;19921;-64
2023/03/24 09:05:48;;;;;;;;;;;;;;;19.65;35.85;95138.06;5051382;28;19925;-66
2023/03/24 09:08:16;;;;;;;;;;;;;;;19.78;35.83;95136.44;5052034;28;20466;-65
2023/03/24 09:10:45;;;;;;;;;;;;;;;19.79;34.53;95127.34;5051491;28;20407;-66
2023/03/24 09:13:13;;;;;;;;;;;;;;;19.65;34.41;95122.13;5051579;28;19925;-67
2023/03/24 09:15:44;;;;;;;;;;;;;;;19.91;34.76;95130.19;5051916;28;19921;-66
2023/03/24 09:18:11;;;;;;;;;;;;;;;20.37;34.99;95108.44;5051855;28;19928;-64
2023/03/24 09:20:37;;;;;;;;;;;;;;;20.15;33.82;95091.47;5051323;28;19963;-68
2023/03/24 09:23:04;;;;;;;;;;;;;;;20.66;33.78;95114.72;5051176;28;19924;-65
2023/03/24 09:25:31;;;;;;;;;;;;;;;20.89;34.25;95102.81;5051772;28;19928;-68
2023/03/24 09:27:57;;;;;;;;;;;;;;;21.17;33.75;95097.19;5051448;28;19971;-64
2023/03/24 09:30:24;;;;;;;;;;;;;;;21.53;33.37;95101.00;5051738;28;20362;-64
2023/03/24 09:32:50;;;;;;;;;;;;;;;21.86;32.56;95104.69;5050570;28;19970;-64
2023/03/24 09:35:17;;;;;;;;;;;;;;;22.08;32.76;95099.06;5051622;28;19921;-66
2023/03/24 09:37:45;;;;;;;;;;;;;;;22.13;32.20;95098.88;5050864;28;20285;-67
2023/03/24 09:40:18;;;;;;;;;;;;;;;22.36;31.09;95091.38;5050949;28;19924;-65
2023/03/24 09:42:49;;;;;;;;;;;;;;;21.93;30.68;95086.28;5050416;28;20383;-65
2023/03/24 09:45:17;;;;;;;;;;;;;;;22.38;31.88;95086.50;5051339;28;19927;-64
2023/03/24 09:48:01;;;;;;;;;;;;;;;22.51;31.54;95077.47;5032292;28;19925;-67
2023/03/24 09:50:39;;;;;;;;;;;;;;;22.86;31.59;95070.75;5051067;28;20375;-67
2023/03/24 09:53:16;;;;;;;;;;;;;;;23.09;31.35;95071.97;5050360;28;20466;-68
2023/03/24 09:55:43;;;;;;;;;;;;;;;23.34;30.71;95056.03;5050765;28;19948;-68
2023/03/24 09:58:12;;;;;;;;;;;;;;;23.46;30.57;95053.34;5050922;28;19978;-67
2023/03/24 10:00:57;;;;;;;;;;;;;;;23.72;30.53;95061.88;5035443;28;20026;-66
2023/03/24 10:03:24;;;;;;;;;;;;;;;23.73;30.49;95055.38;5045234;28;19987;-64
2023/03/24 10:06:14;;;;;;;;;;;;;;;23.72;31.07;95056.50;5049960;28;19931;-64
2023/03/24 10:08:42;;;;;;;;;;;;;;;23.89;30.65;95050.94;5050848;28;19928;-65
2023/03/24 10:11:17;;;;;;;;;;;;;;;23.79;29.82;95052.19;5050171;28;19959;-64
2023/03/24 10:13:59;;;;;;;;;;;;;;;24.05;29.59;95051.84;5050487;28;19921;-65
2023/03/24 10:16:31;;;;;;;;;;;;;;;24.13;29.59;95042.91;5038855;28;20035;-65
2023/03/24 10:19:16;;;;;;;;;;;;;;;24.32;28.90;95053.03;5050533;28;20367;-66
2023/03/24 10:21:48;;;;;;;;;;;;;;;23.36;28.60;95037.72;5049964;28;19927;-64
2023/03/24 10:24:25;;;;;;;;;;;;;;;23.94;28.31;95042.69;5037529;28;19970;-65
2023/03/24 10:27:01;;;;;;;;;;;;;;;24.09;28.33;95034.78;5049756;28;20361;-66
2023/03/24 10:29:29;;;;;;;;;;;;;;;24.05;28.58;95039.25;5032734;28;19960;-67
2023/03/24 10:32:05;;;;;;;;;;;;;;;24.30;28.96;95029.28;5049638;28;19947;-66
2023/03/24 10:34:32;;;;;;;;;;;;;;;24.25;28.49;95029.50;5050066;28;20273;-66
2023/03/24 10:37:01;;;;;;;;;;;;;;;24.26;28.76;95028.41;5048798;28;19963;-66
2023/03/24 10:39:29;;;;;;;;;;;;;;;24.21;28.40;95022.50;5049702;28;19928;-67
2023/03/24 10:42:23;;;;;;;;;;;;;;;24.14;27.23;95025.75;5036389;28;19921;-65
2023/03/24 10:44:50;;;;;;;;;;;;;;;24.23;27.76;95021.03;5049486;28;20356;-68
2023/03/24 10:47:21;;;;;;;;;;;;;;;24.15;28.24;95016.59;5030026;28;20387;-67
2023/03/24 10:49:53;;;;;;;;;;;;;;;24.26;27.34;95016.91;5049648;28;20394;-67
2023/03/24 10:52:20;;;;;;;;;;;;;;;24.63;27.49;95021.81;5048267;28;19986;-66
2023/03/24 10:55:13;;;;;;;;;;;;;;;24.23;28.28;95006.88;5049131;28;20392;-65
2023/03/24 10:57:42;;;;;;;;;;;;;;;24.30;27.89;95004.41;5027105;28;19925;-67
2023/03/24 11:00:17;;;;;;;;;;;;;;;24.57;27.86;95012.47;5043670;28;20357;-68
2023/03/24 11:02:51;;;;;;;;;;;;;;;24.15;27.83;95011.22;5049533;28;19925;-65
2023/03/24 11:05:19;;;;;;;;;;;;;;;24.34;28.00;95014.09;5049596;28;19928;-66
2023/03/24 11:08:10;;;;;;;;;;;;;;;24.56;27.22;95010.88;5049587;28;20070;-67
2023/03/24 11:10:37;;;;;;;;;;;;;;;24.32;26.25;95010.97;5036904;28;19931;-68
2023/03/24 11:13:06;;;;;;;;;;;;;;;24.58;26.65;94997.94;5048945;28;20351;-66
2023/03/24 11:15:35;;;;;;;;;;;;;;;25.05;26.85;94998.09;5031760;28;19920;-65
2023/03/24 11:18:12;;;;;;;;;;;;;;;25.12;27.52;94986.75;5049184;28;20362;-66
2023/03/24 11:21:02;;;;;;;;;;;;;;;25.25;26.68;94977.53;5049545;28;19955;-66
2023/03/24 11:23:34;;;;;;;;;;;;;;;25.42;26.65;94971.88;5049355;28;19940;-65
2023/03/24 11:26:12;;;;;;;;;;;;;;;25.50;27.22;94968.19;5048956;28;19982;-65
2023/03/24 11:28:44;;;;;;;;;;;;;;;25.32;27.17;94959.72;5049566;28;20344;-68
2023/03/24 11:31:17;;;;;;;;;;;;;;;25.57;26.55;94953.06;5048777;28;20390;-67
2023/03/24 11:33:52;;;;;;;;;;;;;;;25.68;25.28;94947.94;5050087;28;19925;-67
2023/03/24 11:36:41;;;;;;;;;;;;;;;25.37;25.25;94947.91;5037488;28;19928;-68
2023/03/24 11:39:22;;;;;;;;;;;;;;;25.58;24.45;94948.47;5048747;28;19978;-66
2023/03/24 11:42:12;;;;;;;;;;;;;;;25.35;24.36;94942.13;5048901;28;20328;-66
2023/03/24 11:44:45;;;;;;;;;;;;;;;25.73;24.49;94942.31;5039499;28;19925;-67
2023/03/24 11:47:21;;;;;;;;;;;;;;;25.96;24.58;94935.94;5048574;28;20337;-66
2023/03/24 11:49:51;;;;;;;;;;;;;;;26.17;24.11;94938.28;5049238;28;19967;-68
2023/03/24 11:52:23;;;;;;;;;;;;;;;26.44;23.15;94926.56;5049264;28;19921;-65
2023/03/24 11:54:49;;;;;;;;;;;;;;;26.27;22.77;94920.84;5047722;28;20542;-65
2023/03/24 11:57:21;;;;;;;;;;;;;;;26.47;22.00;94925.88;5048632;28;19921;-65
2023/03/24 11:59:58;;;;;;;;;;;;;;;26.37;21.74;94921.06;5049332;28;19928;-67
2023/03/24 12:02:44;;;;;;;;;;;;;;;26.28;22.23;94917.81;5049087;28;19925;-67
2023/03/24 12:05:34;;;;;;;;;;;;;;;26.76;22.64;94906.47;5053194;28;19921;-68
2023/03/24 12:08:13;;;;;;;;;;;;;;;26.86;21.87;94913.94;5007073;28;19921;-68
2023/03/24 12:10:47;;;;;;;;;;;;;;;26.54;20.90;94904.50;5052717;28;19964;-66
2023/03/24 12:13:15;;;;;;;;;;;;;;;26.50;21.46;94895.59;5052622;28;19928;-67
2023/03/24 12:16:03;;;;;;;;;;;;;;;27.00;21.70;94895.38;5052388;28;19928;-65
2023/03/24 12:18:36;;;;;;;;;;;;;;;27.06;21.78;94893.19;5053280;28;19924;-68
2023/03/24 12:21:11;;;;;;;;;;;;;;;26.73;21.56;94901.81;5052074;28;19921;-65
2023/03/24 12:23:43;;;;;;;;;;;;;;;26.72;22.13;94889.50;5053519;28;19928;-64
2023/03/24 12:26:25;;;;;;;;;;;;;;;26.93;21.10;94884.50;5052106;28;19982;-67
2023/03/24 12:28:51;;;;;;;;;;;;;;;27.23;21.74;94871.16;5052354;28;20351;-68
2023/03/24 12:31:25;;;;;;;;;;;;;;;27.66;21.46;94867.97;5052364;28;20398;-67
2023/03/24 12:33:52;;;;;;;;;;;;;;;27.93;20.01;94860.69;5053570;28;19921;-68
2023/03/24 12:36:31;;;;;;;;;;;;;;;28.01;19.91;94862.31;5054092;28;19920;-67
2023/03/24 12:39:17;;;;;;;;;;;;;;;28.17;19.32;94856.72;5052270;28;19974;-66
2023/03/24 12:42:02;;;;;;;;;;;;;;;28.66;19.22;94849.22;5051437;28;19921;-65
2023/03/24 12:44:47;;;;;;;;;;;;;;;28.83;19.24;94843.22;5052736;28;19924;-66
2023/03/24 12:47:14;;;;;;;;;;;;;;;28.93;18.68;94831.72;5051305;28;19920;-67
2023/03/24 12:50:16;;;;;;;;;;;;;;;28.90;18.64;94832.50;5052107;28;20322;-67
2023/03/24 12:52:45;;;;;;;;;;;;;;;29.18;19.18;94831.97;4970446;28;19941;-66
2023/03/24 12:55:29;;;;;;;;;;;;;;;29.35;18.95;94825.91;5033099;28;19943;-64
2023/03/24 12:58:02;;;;;;;;;;;;;;;29.10;18.23;94824.94;5033530;28;20776;-68
2023/03/24 13:00:35;;;;;;;;;;;;;;;29.06;18.49;94818.72;5052037;28;19940;-65
2023/03/24 13:03:09;;;;;;;;;;;;;;;28.78;18.52;94819.25;5051437;28;19924;-67
2023/03/24 13:05:40;;;;;;;;;;;;;;;28.58;18.95;94810.63;5052104;28;19924;-66
2023/03/24 13:08:15;;;;;;;;;;;;;;;28.23;18.35;94821.00;5051427;28;19928;-65
2023/03/24 13:10:42;;;;;;;;;;;;;;;28.24;19.03;94814.47;5051767;28;20192;-65
2023/03/24 13:13:13;;;;;;;;;;;;;;;28.56;18.58;94812.13;5051776;28;20007;-66
2023/03/24 13:15:43;;;;;;;;;;;;;;;29.05;17.95;94814.50;5050778;28;19979;-67
2023/03/24 13:18:09;;;;;;;;;;;;;;;29.29;17.29;94803.13;5051489;28;19921;-67
2023/03/24 13:20:42;;;;;;;;;;;;;;;29.69;16.93;94808.38;5051688;28;19929;-66
2023/03/24 13:23:21;;;;;;;;;;;;;;;27.83;15.61;94805.50;5051086;28;19920;-67
2023/03/24 13:26:11;;;;;;;;;;;;;;;28.84;15.78;94799.69;5050795;28;19929;-65
2023/03/24 13:28:43;;;;;;;;;;;;;;;29.37;16.71;94794.69;5014016;28;19984;-65
2023/03/24 13:31:11;;;;;;;;;;;;;;;29.71;16.49;94796.06;5050648;28;19921;-66
2023/03/24 13:33:39;;;;;;;;;;;;;;;29.10;15.91;94793.34;5051270;28;19982;-66
2023/03/24 13:36:25;;;;;;;;;;;;;;;28.84;16.09;94790.81;5037925;28;19954;-67
2023/03/24 13:38:53;;;;;;;;;;;;;;;28.70;16.15;94786.06;5050912;28;19928;-66
2023/03/24 13:41:30;;;;;;;;;;;;;;;29.12;16.40;94784.88;5050806;28;19920;-67
2023/03/24 13:44:01;;;;;;;;;;;;;;;28.70;15.55;94782.63;5051285;28;19933;-64
2023/03/24 13:46:28;;;;;;;;;;;;;;;29.18;15.57;94778.75;5050356;28;19959;-64
2023/03/24 13:48:57;;;;;;;;;;;;;;;29.57;15.33;94773.59;5037967;28;19943;-66
2023/03/24 13:51:26;;;;;;;;;;;;;;;29.92;15.65;94777.25;5032489;28;20047;-66
2023/03/24 13:53:54;;;;;;;;;;;;;;;30.12;15.13;94772.31;5051032;28;20288;-67
2023/03/24 13:56:27;;;;;;;;;;;;;;;30.48;15.68;94763.13;5050521;28;19975;-66
2023/03/24 13:58:54;;;;;;;;;;;;;;;30.08;14.24;94760.69;5051080;28;19931;-67